createdAt,value
2019-05-25T00:00:17.779Z,29.30
2019-05-25T00:00:50.809Z,29.40
2019-05-25T00:01:25.261Z,29.67
2019-05-25T00:01:58.364Z,29.15
2019-05-25T00:02:31.407Z,29.67
2019-05-25T00:03:04.343Z,29.45
2019-05-25T00:03:37.283Z,29.00
2019-05-25T00:04:10.181Z,29.50
2019-05-25T00:04:43.208Z,29.30
2019-05-25T00:05:17.502Z,29.45
2019-05-25T00:05:50.430Z,29.32
2019-05-25T00:06:23.468Z,29.90
2019-05-25T00:06:56.516Z,29.72
2019-05-25T00:07:29.435Z,29.82
2019-05-25T00:08:02.445Z,29.80
2019-05-25T00:08:35.334Z,29.65
2019-05-25T00:09:08.365Z,29.90
2019-05-25T00:09:41.393Z,29.52
2019-05-25T00:10:14.446Z,29.70
2019-05-25T00:10:47.538Z,29.82
2019-05-25T00:11:20.619Z,29.30
2019-05-25T00:11:53.596Z,29.82
2019-05-25T00:12:26.677Z,29.80
2019-05-25T00:12:59.794Z,29.72
2019-05-25T00:13:33.957Z,29.90
2019-05-25T00:14:06.995Z,29.70
2019-05-25T00:14:39.936Z,30.00
2019-05-25T00:15:13.171Z,30.00
2019-05-25T00:15:46.002Z,29.18
2019-05-25T00:16:18.895Z,30.05
2019-05-25T00:16:52.069Z,30.12
2019-05-25T00:17:24.858Z,29.55
2019-05-25T00:17:57.881Z,29.27
2019-05-25T00:18:30.704Z,29.70
2019-05-25T00:19:03.855Z,29.60
2019-05-25T00:19:36.720Z,29.35
2019-05-25T00:20:10.003Z,29.80
2019-05-25T00:20:42.913Z,29.52
2019-05-25T00:21:16.023Z,29.60
2019-05-25T00:21:49.232Z,29.63
2019-05-25T00:22:22.233Z,29.70
2019-05-25T00:22:55.227Z,29.65
2019-05-25T00:23:28.259Z,29.42
2019-05-25T00:24:11.748Z,29.50
2019-05-25T00:24:36.311Z,29.65
2019-05-25T00:25:09.418Z,29.70
2019-05-25T00:25:42.549Z,29.42
2019-05-25T00:26:15.455Z,29.45
2019-05-25T00:26:49.491Z,29.40
2019-05-25T00:27:22.400Z,29.27
2019-05-25T00:27:55.499Z,29.70
2019-05-25T00:28:30.055Z,29.23
2019-05-25T00:29:04.696Z,29.63
2019-05-25T00:29:37.663Z,29.12
2019-05-25T00:30:11.221Z,29.52
2019-05-25T00:30:44.356Z,29.37
2019-05-25T00:31:17.615Z,29.60
2019-05-25T00:31:50.488Z,29.32
2019-05-25T00:32:23.557Z,29.50
2019-05-25T00:32:56.717Z,29.20
2019-05-25T00:33:29.780Z,29.65
2019-05-25T00:34:02.889Z,29.20
2019-05-25T00:34:35.930Z,29.57
2019-05-25T00:35:09.257Z,29.25
2019-05-25T00:35:42.652Z,29.90
2019-05-25T00:36:16.593Z,29.30
2019-05-25T00:36:49.558Z,29.50
2019-05-25T00:37:22.683Z,29.65
2019-05-25T00:37:55.821Z,29.30
2019-05-25T00:38:28.827Z,28.90
2019-05-25T00:39:01.893Z,29.57
2019-05-25T00:39:35.893Z,29.37
2019-05-25T00:40:09.922Z,29.50
2019-05-25T00:40:42.752Z,29.23
2019-05-25T00:41:15.667Z,29.23
2019-05-25T00:41:48.744Z,29.40
2019-05-25T00:42:21.765Z,29.23
2019-05-25T00:42:54.994Z,29.60
2019-05-25T00:43:28.432Z,29.60
2019-05-25T00:44:02.240Z,29.30
2019-05-25T00:44:36.376Z,29.50
2019-05-25T00:45:09.723Z,29.57
2019-05-25T00:45:42.748Z,29.42
2019-05-25T00:46:16.318Z,29.50
2019-05-25T00:46:49.315Z,29.35
2019-05-25T00:47:22.413Z,29.37
2019-05-25T00:47:55.262Z,29.60
2019-05-25T00:48:28.341Z,29.60
2019-05-25T00:49:01.456Z,29.82
2019-05-25T00:49:34.595Z,29.52
2019-05-25T00:50:07.962Z,29.32
2019-05-25T00:50:40.976Z,29.42
2019-05-25T00:51:13.935Z,29.20
2019-05-25T00:51:46.977Z,29.70
2019-05-25T00:52:20.063Z,29.18
2019-05-25T00:52:54.614Z,29.60
2019-05-25T00:53:27.547Z,29.40
2019-05-25T00:54:01.549Z,29.30
2019-05-25T00:54:34.613Z,29.18
2019-05-25T00:55:08.048Z,29.32
2019-05-25T00:55:41.179Z,29.23
2019-05-25T00:56:14.104Z,29.20
2019-05-25T00:56:48.887Z,29.60
2019-05-25T00:57:21.700Z,29.18
2019-05-25T00:57:54.918Z,29.20
2019-05-25T00:58:27.968Z,29.27
2019-05-25T00:59:01.046Z,29.40
2019-05-25T00:59:34.139Z,29.25
2019-05-25T01:00:09.004Z,29.72
2019-05-25T01:00:42.436Z,29.40
2019-05-25T01:01:15.403Z,29.37
2019-05-25T01:01:48.243Z,29.10
2019-05-25T01:02:21.368Z,29.55
2019-05-25T01:02:54.397Z,29.20
2019-05-25T01:03:27.328Z,29.40
2019-05-25T01:04:00.263Z,29.10
2019-05-25T01:04:33.293Z,29.35
2019-05-25T01:05:06.507Z,29.27
2019-05-25T01:05:39.609Z,29.70
2019-05-25T01:06:12.500Z,29.48
2019-05-25T01:06:47.415Z,29.55
2019-05-25T01:07:20.441Z,29.42
2019-05-25T01:07:53.504Z,29.30
2019-05-25T01:08:26.736Z,29.45
2019-05-25T01:08:59.980Z,29.20
2019-05-25T01:09:33.105Z,29.20
2019-05-25T01:10:06.907Z,29.85
2019-05-25T01:10:39.831Z,29.72
2019-05-25T01:11:12.790Z,29.10
2019-05-25T01:11:45.581Z,29.10
2019-05-25T01:12:18.933Z,29.05
2019-05-25T01:12:51.855Z,28.95
2019-05-25T01:13:24.903Z,29.27
2019-05-25T01:13:57.801Z,29.60
2019-05-25T01:14:31.872Z,29.50
2019-05-25T01:15:05.627Z,29.20
2019-05-25T01:15:39.779Z,29.50
2019-05-25T01:16:13.432Z,29.63
2019-05-25T01:16:46.336Z,29.15
2019-05-25T01:17:19.138Z,29.55
2019-05-25T01:17:52.158Z,29.00
2019-05-25T01:18:25.309Z,29.45
2019-05-25T01:18:59.248Z,29.00
2019-05-25T01:19:32.377Z,29.40
2019-05-25T01:20:06.664Z,29.42
2019-05-25T01:20:39.783Z,29.30
2019-05-25T01:21:12.868Z,29.60
2019-05-25T01:21:45.791Z,29.70
2019-05-25T01:22:18.932Z,29.30
2019-05-25T01:22:51.927Z,29.40
2019-05-25T01:23:24.950Z,29.27
2019-05-25T01:23:57.856Z,29.35
2019-05-25T01:24:43.852Z,29.50
2019-05-25T01:25:07.286Z,29.20
2019-05-25T01:25:40.577Z,29.50
2019-05-25T01:26:13.604Z,29.42
2019-05-25T01:26:46.665Z,29.20
2019-05-25T01:27:19.664Z,29.20
2019-05-25T01:27:52.669Z,29.50
2019-05-25T01:28:25.871Z,29.35
2019-05-25T01:28:58.835Z,29.48
2019-05-25T01:29:31.928Z,29.48
2019-05-25T01:30:05.389Z,29.67
2019-05-25T01:30:39.487Z,29.90
2019-05-25T01:31:12.463Z,29.50
2019-05-25T01:31:45.489Z,29.70
2019-05-25T01:32:18.432Z,29.45
2019-05-25T01:32:51.436Z,29.42
2019-05-25T01:33:24.289Z,29.85
2019-05-25T01:33:57.161Z,29.67
2019-05-25T01:34:30.158Z,29.60
2019-05-25T01:35:03.372Z,29.48
2019-05-25T01:35:36.392Z,29.60
2019-05-25T01:36:09.517Z,29.70
2019-05-25T01:36:42.596Z,29.90
2019-05-25T01:37:15.547Z,29.37
2019-05-25T01:37:48.897Z,29.67
2019-05-25T01:38:21.843Z,29.50
2019-05-25T01:38:55.017Z,29.60
2019-05-25T01:39:28.043Z,29.48
2019-05-25T01:40:01.215Z,29.52
2019-05-25T01:40:34.226Z,29.20
2019-05-25T01:41:07.201Z,29.12
2019-05-25T01:41:40.441Z,29.57
2019-05-25T01:42:13.531Z,29.50
2019-05-25T01:42:46.643Z,29.35
2019-05-25T01:43:19.821Z,29.50
2019-05-25T01:43:52.818Z,29.35
2019-05-25T01:44:25.785Z,29.32
2019-05-25T01:44:58.662Z,29.40
2019-05-25T01:45:31.748Z,29.40
2019-05-25T01:46:04.882Z,29.50
2019-05-25T01:46:38.047Z,29.05
2019-05-25T01:47:12.414Z,29.25
2019-05-25T01:47:45.448Z,29.30
2019-05-25T01:48:18.517Z,29.32
2019-05-25T01:48:51.565Z,29.50
2019-05-25T01:49:24.742Z,29.80
2019-05-25T01:49:57.953Z,29.42
2019-05-25T01:50:31.080Z,29.48
2019-05-25T01:51:04.146Z,29.10
2019-05-25T01:51:37.144Z,29.67
2019-05-25T01:52:10.172Z,29.52
2019-05-25T01:52:43.071Z,29.40
2019-05-25T01:53:16.154Z,29.25
2019-05-25T01:53:49.137Z,29.45
2019-05-25T01:54:22.085Z,29.50
2019-05-25T01:54:59.747Z,29.42
2019-05-25T01:55:29.962Z,29.60
2019-05-25T01:56:02.860Z,29.42
2019-05-25T01:56:35.827Z,29.30
2019-05-25T01:57:08.849Z,29.70
2019-05-25T01:57:42.803Z,29.57
2019-05-25T01:58:15.827Z,29.32
2019-05-25T01:58:48.834Z,29.37
2019-05-25T01:59:21.838Z,29.60
2019-05-25T01:59:54.981Z,29.67
2019-05-25T02:00:27.985Z,29.45
2019-05-25T02:01:01.077Z,29.32
2019-05-25T02:01:34.133Z,29.40
2019-05-25T02:02:07.266Z,29.05
2019-05-25T02:02:40.280Z,29.23
2019-05-25T02:03:13.296Z,29.57
2019-05-25T02:03:46.195Z,29.40
2019-05-25T02:04:19.134Z,29.63
2019-05-25T02:04:52.048Z,29.12
2019-05-25T02:05:25.025Z,29.18
2019-05-25T02:05:57.931Z,29.87
2019-05-25T02:06:30.927Z,29.27
2019-05-25T02:07:04.358Z,29.27
2019-05-25T02:07:37.355Z,29.05
2019-05-25T02:08:10.415Z,28.98
2019-05-25T02:08:43.323Z,29.90
2019-05-25T02:09:16.099Z,29.37
2019-05-25T02:09:49.143Z,29.65
2019-05-25T02:10:22.092Z,29.82
2019-05-25T02:10:55.232Z,29.57
2019-05-25T02:11:28.088Z,29.45
2019-05-25T02:12:01.179Z,29.50
2019-05-25T02:12:34.362Z,29.60
2019-05-25T02:13:07.413Z,29.50
2019-05-25T02:13:40.346Z,30.07
2019-05-25T02:14:13.235Z,29.82
2019-05-25T02:14:46.147Z,29.37
2019-05-25T02:15:19.991Z,29.45
2019-05-25T02:15:52.978Z,29.95
2019-05-25T02:16:26.005Z,29.42
2019-05-25T02:16:59.091Z,29.60
2019-05-25T02:17:32.205Z,29.57
2019-05-25T02:18:05.320Z,29.63
2019-05-25T02:18:38.470Z,29.50
2019-05-25T02:19:11.581Z,29.40
2019-05-25T02:19:44.724Z,29.50
2019-05-25T02:20:17.851Z,29.60
2019-05-25T02:20:51.210Z,29.80
2019-05-25T02:21:24.333Z,29.65
2019-05-25T02:21:57.493Z,29.43
2019-05-25T02:22:30.612Z,29.55
2019-05-25T02:23:04.199Z,29.67
2019-05-25T02:23:37.270Z,29.50
2019-05-25T02:24:10.335Z,29.90
2019-05-25T02:24:43.383Z,30.32
2019-05-25T02:25:18.724Z,29.80
2019-05-25T02:25:51.797Z,29.90
2019-05-25T02:26:24.865Z,29.92
2019-05-25T02:26:57.762Z,30.17
2019-05-25T02:27:30.801Z,30.10
2019-05-25T02:28:03.839Z,30.35
2019-05-25T02:28:36.890Z,30.27
2019-05-25T02:29:09.990Z,30.05
2019-05-25T02:29:42.945Z,30.05
2019-05-25T02:30:17.890Z,29.80
2019-05-25T02:30:50.956Z,30.32
2019-05-25T02:31:23.963Z,30.35
2019-05-25T02:31:57.030Z,30.00
2019-05-25T02:32:30.028Z,30.27
2019-05-25T02:33:03.191Z,30.08
2019-05-25T02:33:36.109Z,30.60
2019-05-25T02:34:09.289Z,30.65
2019-05-25T02:34:42.260Z,30.23
2019-05-25T02:35:24.767Z,30.30
2019-05-25T02:35:57.791Z,30.17
2019-05-25T02:36:31.845Z,30.23
2019-05-25T02:37:04.865Z,29.87
2019-05-25T02:37:37.902Z,30.35
2019-05-25T02:38:11.005Z,30.35
2019-05-25T02:38:44.091Z,30.17
2019-05-25T02:39:18.242Z,30.15
2019-05-25T02:39:51.163Z,30.30
2019-05-25T02:40:25.840Z,30.45
2019-05-25T02:40:59.283Z,30.60
2019-05-25T02:41:32.405Z,30.20
2019-05-25T02:42:05.534Z,30.30
2019-05-25T02:42:38.689Z,30.30
2019-05-25T02:43:11.611Z,30.20
2019-05-25T02:43:44.640Z,30.25
2019-05-25T02:44:17.576Z,30.20
2019-05-25T02:44:50.389Z,30.17
2019-05-25T02:45:23.421Z,30.35
2019-05-25T02:45:57.457Z,30.12
2019-05-25T02:46:30.639Z,29.90
2019-05-25T02:47:04.138Z,30.12
2019-05-25T02:47:37.280Z,29.87
2019-05-25T02:48:10.378Z,30.57
2019-05-25T02:48:43.509Z,30.35
2019-05-25T02:49:16.633Z,30.17
2019-05-25T02:49:50.179Z,30.30
2019-05-25T02:50:23.643Z,30.05
2019-05-25T02:50:56.916Z,30.05
2019-05-25T02:51:29.902Z,30.30
2019-05-25T02:52:03.094Z,30.12
2019-05-25T02:52:36.127Z,30.60
2019-05-25T02:53:09.273Z,30.00
2019-05-25T02:53:42.461Z,30.30
2019-05-25T02:54:15.507Z,30.37
2019-05-25T02:54:48.637Z,30.65
2019-05-25T02:55:33.790Z,30.50
2019-05-25T02:55:56.763Z,30.30
2019-05-25T02:56:29.882Z,30.17
2019-05-25T02:57:03.019Z,29.90
2019-05-25T02:57:36.798Z,30.65
2019-05-25T02:58:09.865Z,30.32
2019-05-25T02:58:42.767Z,30.08
2019-05-25T02:59:15.851Z,30.40
2019-05-25T02:59:48.947Z,30.35
2019-05-25T03:00:31.491Z,30.12
2019-05-25T03:01:04.714Z,30.50
2019-05-25T03:01:37.754Z,30.20
2019-05-25T03:02:10.829Z,30.40
2019-05-25T03:02:44.064Z,30.55
2019-05-25T03:03:17.267Z,30.62
2019-05-25T03:03:50.570Z,30.60
2019-05-25T03:04:23.625Z,30.00
2019-05-25T03:04:56.721Z,30.25
2019-05-25T03:05:29.908Z,30.70
2019-05-25T03:06:04.666Z,30.30
2019-05-25T03:06:38.115Z,30.20
2019-05-25T03:07:11.525Z,30.60
2019-05-25T03:07:44.663Z,30.10
2019-05-25T03:08:18.235Z,30.20
2019-05-25T03:08:54.217Z,30.17
2019-05-25T03:09:28.752Z,30.17
2019-05-25T03:10:04.761Z,30.00
2019-05-25T03:10:39.451Z,30.02
2019-05-25T03:11:14.154Z,29.67
2019-05-25T03:11:49.066Z,29.80
2019-05-25T03:12:22.469Z,29.82
2019-05-25T03:12:55.597Z,29.70
2019-05-25T03:13:31.377Z,29.70
2019-05-25T03:14:04.508Z,29.95
2019-05-25T03:14:37.575Z,29.63
2019-05-25T03:15:10.841Z,30.05
2019-05-25T03:15:44.251Z,29.85
2019-05-25T03:16:17.768Z,29.72
2019-05-25T03:16:50.821Z,29.80
2019-05-25T03:17:23.795Z,29.52
2019-05-25T03:17:56.877Z,30.20
2019-05-25T03:18:29.905Z,29.70
2019-05-25T03:19:02.954Z,30.08
2019-05-25T03:19:36.058Z,29.50
2019-05-25T03:20:09.300Z,29.85
2019-05-25T03:20:42.318Z,29.90
2019-05-25T03:21:15.836Z,30.45
2019-05-25T03:21:49.031Z,30.05
2019-05-25T03:22:22.134Z,29.67
2019-05-25T03:22:55.224Z,30.10
2019-05-25T03:23:28.363Z,30.20
2019-05-25T03:24:01.509Z,30.20
2019-05-25T03:24:34.578Z,29.95
2019-05-25T03:25:07.977Z,30.30
2019-05-25T03:25:49.690Z,29.82
2019-05-25T03:26:18.173Z,29.90
2019-05-25T03:26:51.102Z,29.92
2019-05-25T03:27:24.327Z,29.87
2019-05-25T03:27:57.410Z,29.90
2019-05-25T03:28:30.573Z,30.12
2019-05-25T03:29:03.864Z,29.98
2019-05-25T03:29:36.803Z,30.37
2019-05-25T03:30:10.364Z,30.20
2019-05-25T03:30:43.486Z,30.20
2019-05-25T03:31:16.587Z,30.30
2019-05-25T03:31:49.705Z,30.23
2019-05-25T03:32:22.762Z,30.32
2019-05-25T03:32:57.021Z,29.98
2019-05-25T03:33:30.064Z,30.52
2019-05-25T03:34:03.128Z,30.32
2019-05-25T03:34:36.056Z,30.48
2019-05-25T03:35:09.432Z,30.12
2019-05-25T03:35:42.536Z,30.55
2019-05-25T03:36:15.584Z,30.37
2019-05-25T03:36:50.208Z,30.17
2019-05-25T03:37:23.267Z,30.95
2019-05-25T03:37:56.466Z,30.80
2019-05-25T03:38:30.035Z,30.30
2019-05-25T03:39:06.796Z,30.60
2019-05-25T03:39:39.797Z,30.77
2019-05-25T03:40:13.081Z,30.25
2019-05-25T03:40:46.262Z,30.60
2019-05-25T03:41:19.209Z,30.10
2019-05-25T03:41:53.923Z,30.60
2019-05-25T03:42:26.955Z,30.02
2019-05-25T03:43:00.023Z,31.07
2019-05-25T03:43:33.163Z,30.30
2019-05-25T03:44:06.195Z,30.57
2019-05-25T03:44:41.917Z,30.08
2019-05-25T03:45:15.171Z,30.20
2019-05-25T03:45:48.523Z,30.10
2019-05-25T03:46:21.495Z,30.12
2019-05-25T03:46:54.423Z,30.37
2019-05-25T03:47:27.595Z,29.95
2019-05-25T03:48:00.684Z,30.15
2019-05-25T03:48:33.914Z,29.95
2019-05-25T03:49:06.848Z,30.90
2019-05-25T03:49:39.981Z,30.15
2019-05-25T03:50:13.405Z,30.30
2019-05-25T03:50:46.517Z,30.20
2019-05-25T03:51:20.083Z,30.23
2019-05-25T03:51:53.207Z,29.80
2019-05-25T03:52:26.376Z,30.40
2019-05-25T03:52:59.753Z,30.20
2019-05-25T03:53:32.748Z,30.45
2019-05-25T03:54:05.829Z,30.08
2019-05-25T03:54:38.791Z,29.82
2019-05-25T03:55:12.139Z,30.12
2019-05-25T03:55:45.197Z,30.17
2019-05-25T03:56:18.214Z,29.72
2019-05-25T03:56:51.276Z,29.80
2019-05-25T03:57:24.198Z,30.27
2019-05-25T03:57:58.163Z,29.85
2019-05-25T03:58:31.145Z,29.82
2019-05-25T03:59:04.305Z,29.90
2019-05-25T03:59:38.452Z,30.48
2019-05-25T04:00:12.297Z,29.50
2019-05-25T04:00:45.714Z,30.08
2019-05-25T04:01:18.741Z,30.10
2019-05-25T04:01:51.784Z,29.82
2019-05-25T04:02:24.787Z,29.67
2019-05-25T04:02:57.712Z,30.10
2019-05-25T04:03:30.797Z,30.40
2019-05-25T04:04:03.842Z,29.85
2019-05-25T04:04:36.964Z,29.90
2019-05-25T04:05:10.624Z,30.00
2019-05-25T04:05:43.723Z,30.05
2019-05-25T04:06:16.880Z,29.82
2019-05-25T04:06:49.979Z,30.08
2019-05-25T04:07:23.321Z,30.10
2019-05-25T04:07:56.304Z,29.85
2019-05-25T04:08:29.359Z,29.65
2019-05-25T04:09:03.300Z,30.12
2019-05-25T04:09:36.347Z,29.70
2019-05-25T04:10:09.473Z,29.95
2019-05-25T04:10:42.838Z,29.90
2019-05-25T04:11:15.754Z,30.08
2019-05-25T04:11:48.677Z,29.67
2019-05-25T04:12:21.703Z,30.23
2019-05-25T04:12:54.825Z,29.82
2019-05-25T04:13:27.825Z,29.65
2019-05-25T04:14:00.903Z,30.37
2019-05-25T04:14:33.944Z,29.72
2019-05-25T04:15:07.288Z,30.17
2019-05-25T04:15:40.270Z,30.05
2019-05-25T04:16:13.406Z,29.55
2019-05-25T04:16:46.454Z,30.02
2019-05-25T04:17:19.403Z,29.80
2019-05-25T04:17:52.471Z,29.90
2019-05-25T04:18:25.655Z,30.00
2019-05-25T04:18:58.575Z,29.50
2019-05-25T04:19:31.719Z,29.63
2019-05-25T04:20:04.996Z,29.65
2019-05-25T04:20:38.075Z,29.87
2019-05-25T04:21:11.028Z,29.70
2019-05-25T04:21:44.081Z,29.72
2019-05-25T04:22:17.131Z,29.85
2019-05-25T04:22:50.178Z,29.92
2019-05-25T04:23:23.159Z,29.77
2019-05-25T04:23:56.443Z,29.77
2019-05-25T04:24:29.485Z,29.65
2019-05-25T04:25:02.667Z,29.85
2019-05-25T04:25:36.241Z,29.98
2019-05-25T04:26:22.165Z,30.17
2019-05-25T04:26:44.442Z,29.52
2019-05-25T04:27:17.455Z,29.80
2019-05-25T04:27:50.435Z,29.90
2019-05-25T04:28:23.507Z,30.10
2019-05-25T04:28:56.571Z,30.08
2019-05-25T04:29:29.534Z,30.02
2019-05-25T04:30:02.970Z,29.80
2019-05-25T04:30:36.025Z,30.05
2019-05-25T04:31:08.989Z,30.15
2019-05-25T04:31:42.055Z,30.10
2019-05-25T04:32:15.104Z,29.70
2019-05-25T04:32:49.745Z,30.00
2019-05-25T04:33:22.907Z,30.48
2019-05-25T04:33:55.888Z,29.32
2019-05-25T04:34:28.824Z,29.92
2019-05-25T04:35:01.994Z,29.98
2019-05-25T04:35:34.999Z,29.98
2019-05-25T04:36:08.078Z,29.80
2019-05-25T04:36:41.161Z,30.10
2019-05-25T04:37:15.187Z,30.20
2019-05-25T04:37:48.342Z,30.10
2019-05-25T04:38:21.341Z,30.57
2019-05-25T04:38:54.462Z,30.00
2019-05-25T04:39:27.471Z,30.68
2019-05-25T04:40:00.595Z,30.75
2019-05-25T04:40:33.689Z,30.40
2019-05-25T04:41:06.671Z,30.20
2019-05-25T04:41:39.616Z,30.32
2019-05-25T04:42:12.635Z,30.30
2019-05-25T04:42:45.736Z,30.12
2019-05-25T04:43:18.819Z,30.57
2019-05-25T04:43:51.940Z,30.45
2019-05-25T04:44:24.933Z,30.88
2019-05-25T04:44:57.924Z,30.70
2019-05-25T04:45:30.887Z,30.15
2019-05-25T04:46:04.009Z,30.57
2019-05-25T04:46:36.956Z,30.52
2019-05-25T04:47:24.345Z,29.92
2019-05-25T04:47:46.174Z,30.20
2019-05-25T04:48:19.325Z,30.32
2019-05-25T04:48:52.386Z,30.30
2019-05-25T04:49:25.210Z,30.68
2019-05-25T04:49:58.239Z,30.57
2019-05-25T04:50:31.197Z,30.23
2019-05-25T04:51:04.155Z,30.12
2019-05-25T04:51:37.221Z,30.77
2019-05-25T04:52:10.266Z,30.80
2019-05-25T04:52:45.133Z,30.68
2019-05-25T04:53:18.288Z,30.92
2019-05-25T04:53:51.512Z,30.77
2019-05-25T04:54:24.507Z,31.07
2019-05-25T04:54:57.579Z,30.70
2019-05-25T04:55:30.720Z,30.50
2019-05-25T04:56:03.799Z,30.92
2019-05-25T04:56:39.895Z,30.70
2019-05-25T04:57:11.862Z,30.60
2019-05-25T04:57:44.956Z,30.90
2019-05-25T04:58:18.163Z,30.77
2019-05-25T04:58:51.257Z,31.10
2019-05-25T04:59:25.406Z,30.70
2019-05-25T04:59:59.857Z,30.50
2019-05-25T05:00:32.810Z,30.97
2019-05-25T05:01:06.443Z,30.77
2019-05-25T05:01:40.511Z,30.52
2019-05-25T05:02:13.605Z,31.10
2019-05-25T05:02:46.706Z,30.57
2019-05-25T05:03:19.798Z,31.15
2019-05-25T05:03:53.247Z,30.60
2019-05-25T05:04:26.327Z,31.00
2019-05-25T05:05:00.378Z,30.92
2019-05-25T05:05:33.466Z,30.68
2019-05-25T05:06:06.639Z,31.02
2019-05-25T05:06:39.880Z,30.90
2019-05-25T05:07:13.125Z,31.02
2019-05-25T05:07:46.217Z,30.95
2019-05-25T05:08:19.277Z,31.23
2019-05-25T05:08:52.343Z,31.05
2019-05-25T05:09:25.306Z,31.10
2019-05-25T05:10:02.500Z,30.75
2019-05-25T05:10:34.581Z,31.00
2019-05-25T05:11:07.591Z,31.07
2019-05-25T05:11:41.770Z,31.07
2019-05-25T05:12:14.953Z,31.57
2019-05-25T05:12:48.063Z,31.17
2019-05-25T05:13:21.149Z,31.10
2019-05-25T05:13:54.273Z,31.17
2019-05-25T05:14:28.949Z,30.97
2019-05-25T05:15:03.496Z,30.95
2019-05-25T05:15:36.776Z,30.68
2019-05-25T05:16:09.870Z,30.95
2019-05-25T05:16:42.974Z,30.80
2019-05-25T05:17:16.075Z,31.12
2019-05-25T05:17:49.195Z,31.00
2019-05-25T05:18:22.428Z,30.65
2019-05-25T05:18:55.739Z,31.10
2019-05-25T05:19:28.907Z,30.97
2019-05-25T05:20:02.139Z,30.72
2019-05-25T05:20:35.977Z,31.07
2019-05-25T05:21:09.064Z,31.07
2019-05-25T05:21:42.083Z,31.33
2019-05-25T05:22:15.187Z,30.97
2019-05-25T05:22:48.399Z,31.30
2019-05-25T05:23:21.529Z,30.67
2019-05-25T05:23:54.495Z,31.15
2019-05-25T05:24:27.511Z,30.97
2019-05-25T05:25:00.620Z,30.82
2019-05-25T05:25:33.631Z,30.85
2019-05-25T05:26:06.558Z,30.90
2019-05-25T05:26:54.800Z,30.70
2019-05-25T05:27:14.765Z,31.17
2019-05-25T05:27:47.867Z,30.57
2019-05-25T05:28:20.921Z,31.50
2019-05-25T05:28:54.089Z,31.00
2019-05-25T05:29:27.114Z,31.02
2019-05-25T05:30:00.050Z,30.90
2019-05-25T05:30:33.799Z,31.00
2019-05-25T05:31:20.995Z,30.92
2019-05-25T05:31:41.789Z,30.82
2019-05-25T05:32:26.523Z,31.00
2019-05-25T05:32:49.934Z,30.70
2019-05-25T05:33:23.131Z,31.12
2019-05-25T05:33:56.299Z,31.48
2019-05-25T05:34:29.492Z,30.55
2019-05-25T05:35:03.691Z,30.57
2019-05-25T05:35:39.127Z,30.92
2019-05-25T05:36:13.748Z,31.05
2019-05-25T05:36:47.710Z,30.65
2019-05-25T05:37:22.609Z,30.50
2019-05-25T05:37:58.159Z,30.67
2019-05-25T05:38:32.145Z,30.72
2019-05-25T05:39:07.703Z,30.90
2019-05-25T05:39:41.266Z,30.85
2019-05-25T05:40:14.741Z,31.20
2019-05-25T05:40:48.020Z,30.82
2019-05-25T05:41:21.331Z,31.30
2019-05-25T05:41:55.080Z,30.80
2019-05-25T05:42:31.454Z,30.82
2019-05-25T05:43:09.087Z,31.27
2019-05-25T05:43:44.019Z,30.57
2019-05-25T05:44:18.971Z,31.20
2019-05-25T05:44:55.821Z,31.07
2019-05-25T05:45:30.051Z,30.80
2019-05-25T05:46:04.630Z,31.33
2019-05-25T05:46:38.101Z,31.10
2019-05-25T05:47:14.101Z,31.25
2019-05-25T05:47:48.828Z,31.77
2019-05-25T05:48:25.370Z,31.37
2019-05-25T05:48:59.514Z,31.27
2019-05-25T05:49:32.574Z,31.00
2019-05-25T05:50:07.052Z,31.20
2019-05-25T05:50:41.511Z,31.30
2019-05-25T05:51:18.543Z,31.27
2019-05-25T05:51:54.015Z,30.97
2019-05-25T05:52:30.358Z,30.85
2019-05-25T05:53:03.750Z,31.07
2019-05-25T05:53:39.392Z,31.52
2019-05-25T05:54:15.728Z,31.70
2019-05-25T05:54:51.211Z,31.05
2019-05-25T05:55:30.775Z,30.80
2019-05-25T05:56:04.610Z,31.20
2019-05-25T05:56:37.766Z,31.25
2019-05-25T05:57:12.700Z,30.92
2019-05-25T05:57:45.741Z,31.10
2019-05-25T05:58:20.388Z,30.95
2019-05-25T05:58:53.358Z,31.05
2019-05-25T05:59:28.142Z,31.00
2019-05-25T06:00:02.413Z,31.68
2019-05-25T06:00:35.636Z,31.25
2019-05-25T06:01:08.626Z,31.37
2019-05-25T06:01:41.570Z,31.17
2019-05-25T06:02:14.514Z,30.90
2019-05-25T06:02:48.709Z,30.50
2019-05-25T06:03:21.775Z,30.62
2019-05-25T06:03:54.948Z,30.70
2019-05-25T06:04:28.475Z,30.40
2019-05-25T06:05:02.081Z,30.55
2019-05-25T06:05:36.707Z,30.48
2019-05-25T06:06:09.668Z,30.52
2019-05-25T06:06:42.883Z,30.30
2019-05-25T06:07:16.368Z,30.55
2019-05-25T06:07:49.632Z,30.50
2019-05-25T06:08:22.895Z,30.40
2019-05-25T06:08:55.987Z,30.43
2019-05-25T06:09:29.130Z,31.17
2019-05-25T06:10:03.465Z,30.30
2019-05-25T06:10:36.731Z,30.55
2019-05-25T06:11:10.349Z,31.20
2019-05-25T06:11:43.443Z,30.70
2019-05-25T06:12:17.137Z,30.88
2019-05-25T06:12:50.287Z,31.15
2019-05-25T06:13:23.381Z,31.07
2019-05-25T06:13:56.393Z,31.10
2019-05-25T06:14:29.469Z,30.68
2019-05-25T06:15:02.809Z,30.80
2019-05-25T06:15:35.987Z,30.88
2019-05-25T06:16:09.226Z,31.20
2019-05-25T06:16:42.180Z,30.97
2019-05-25T06:17:15.256Z,31.77
2019-05-25T06:17:48.412Z,30.60
2019-05-25T06:18:21.344Z,30.77
2019-05-25T06:18:54.347Z,31.27
2019-05-25T06:19:28.625Z,31.20
2019-05-25T06:20:04.363Z,30.90
2019-05-25T06:20:37.497Z,30.88
2019-05-25T06:21:10.647Z,31.15
2019-05-25T06:21:43.881Z,30.77
2019-05-25T06:22:17.086Z,30.90
2019-05-25T06:22:50.157Z,31.20
2019-05-25T06:23:23.294Z,30.62
2019-05-25T06:23:56.502Z,30.95
2019-05-25T06:24:29.695Z,30.82
2019-05-25T06:25:03.992Z,30.27
2019-05-25T06:25:37.064Z,30.67
2019-05-25T06:26:10.045Z,31.12
2019-05-25T06:26:43.538Z,31.10
2019-05-25T06:27:27.137Z,30.52
2019-05-25T06:27:51.781Z,30.92
2019-05-25T06:28:26.526Z,30.77
2019-05-25T06:28:59.647Z,30.68
2019-05-25T06:29:32.822Z,30.50
2019-05-25T06:30:06.597Z,30.10
2019-05-25T06:30:39.640Z,30.30
2019-05-25T06:31:12.675Z,30.30
2019-05-25T06:31:45.863Z,29.82
2019-05-25T06:32:19.023Z,29.87
2019-05-25T06:32:52.452Z,30.02
2019-05-25T06:33:25.593Z,29.82
2019-05-25T06:33:58.666Z,29.75
2019-05-25T06:34:31.727Z,30.05
2019-05-25T06:35:05.311Z,30.52
2019-05-25T06:35:38.881Z,30.25
2019-05-25T06:36:12.181Z,30.23
2019-05-25T06:36:45.214Z,30.37
2019-05-25T06:37:18.420Z,30.20
2019-05-25T06:37:51.540Z,30.52
2019-05-25T06:38:24.712Z,29.95
2019-05-25T06:38:57.740Z,30.00
2019-05-25T06:39:31.156Z,29.67
2019-05-25T06:40:05.130Z,30.02
2019-05-25T06:40:38.330Z,29.35
2019-05-25T06:41:11.522Z,29.12
2019-05-25T06:41:44.633Z,29.20
2019-05-25T06:42:17.759Z,29.20
2019-05-25T06:42:50.875Z,29.50
2019-05-25T06:43:23.981Z,29.52
2019-05-25T06:43:58.409Z,29.12
2019-05-25T06:44:31.594Z,29.40
2019-05-25T06:45:04.975Z,29.02
2019-05-25T06:45:38.033Z,29.23
2019-05-25T06:46:11.211Z,29.07
2019-05-25T06:46:44.170Z,29.52
2019-05-25T06:47:17.702Z,29.10
2019-05-25T06:47:50.899Z,29.15
2019-05-25T06:48:24.013Z,29.70
2019-05-25T06:48:57.056Z,29.37
2019-05-25T06:49:30.046Z,29.35
2019-05-25T06:50:03.727Z,29.27
2019-05-25T06:50:36.911Z,29.23
2019-05-25T06:51:09.870Z,29.27
2019-05-25T06:51:43.990Z,29.30
2019-05-25T06:52:17.130Z,29.43
2019-05-25T06:52:53.193Z,29.30
2019-05-25T06:53:26.201Z,29.45
2019-05-25T06:53:59.301Z,29.10
2019-05-25T06:54:32.405Z,29.10
2019-05-25T06:55:05.694Z,29.37
2019-05-25T06:55:38.694Z,29.15
2019-05-25T06:56:11.636Z,29.18
2019-05-25T06:56:44.559Z,29.15
2019-05-25T06:57:18.056Z,29.30
2019-05-25T06:57:50.998Z,28.90
2019-05-25T06:58:24.266Z,29.10
2019-05-25T06:58:57.358Z,28.90
2019-05-25T06:59:30.572Z,29.18
2019-05-25T07:00:04.916Z,29.18
2019-05-25T07:00:38.075Z,29.75
2019-05-25T07:01:11.156Z,29.32
2019-05-25T07:01:44.102Z,29.25
2019-05-25T07:02:17.085Z,29.12
2019-05-25T07:02:50.141Z,29.10
2019-05-25T07:03:23.308Z,29.67
2019-05-25T07:03:56.474Z,29.05
2019-05-25T07:04:29.441Z,28.80
2019-05-25T07:05:03.674Z,28.92
2019-05-25T07:05:36.790Z,29.20
2019-05-25T07:06:09.787Z,29.00
2019-05-25T07:06:43.115Z,28.67
2019-05-25T07:07:16.214Z,28.92
2019-05-25T07:07:49.271Z,28.70
2019-05-25T07:08:22.421Z,28.60
2019-05-25T07:08:55.495Z,28.40
2019-05-25T07:09:28.554Z,28.83
2019-05-25T07:10:01.850Z,28.70